Time;durP1;ratioP1;P1;durP2;ratioP2;P2;SDS_P1;SDS_P2;PMS_P1;PMS_P2;Temp;Humidity;BMP_temperature;BMP_pressure;BME280_temperature;BME280_humidity;BME280_pressure;Samples;Min_cycle;Max_cycle;Signal;HPM_P1;HPM_P2
2023/02/17 00:00:59;;;;;;;44.05;25.35;;;;;;;;;;5014252;28;20204;-61
2023/02/17 00:03:25;;;;;;;43.90;27.00;;;;;;;;;;5014292;28;20178;-61
2023/02/17 00:05:52;;;;;;;40.20;25.42;;;;;;;;;;5014509;28;20175;-60
2023/02/17 00:08:18;;;;;;;43.03;25.70;;;;;;;;;;5014532;28;20181;-62
2023/02/17 00:10:44;;;;;;;42.67;25.52;;;;;;;;;;5013753;28;20185;-62
2023/02/17 00:13:10;;;;;;;39.88;25.25;;;;;;;;;;5014069;28;20187;-62
2023/02/17 00:15:39;;;;;;;43.25;25.98;;;;;;;;;;5014116;28;20235;-61
2023/02/17 00:18:05;;;;;;;38.75;25.80;;;;;;;;;;5014510;28;20177;-62
2023/02/17 00:20:31;;;;;;;42.78;27.15;;;;;;;;;;5014330;28;20253;-62
2023/02/17 00:22:57;;;;;;;42.83;27.10;;;;;;;;;;5014294;28;20602;-60
2023/02/17 00:25:23;;;;;;;44.72;28.83;;;;;;;;;;5014226;28;20174;-61
2023/02/17 00:27:49;;;;;;;46.10;29.77;;;;;;;;;;5013912;28;20175;-61
2023/02/17 00:30:16;;;;;;;45.80;29.33;;;;;;;;;;5014015;28;20185;-62
2023/02/17 00:32:41;;;;;;;46.67;28.77;;;;;;;;;;5013793;28;20219;-62
2023/02/17 00:35:07;;;;;;;44.55;28.23;;;;;;;;;;5014387;28;20170;-62
2023/02/17 00:37:34;;;;;;;46.90;29.65;;;;;;;;;;5014042;28;20165;-62
2023/02/17 00:40:00;;;;;;;45.33;29.35;;;;;;;;;;5014190;28;20219;-63
2023/02/17 00:42:26;;;;;;;47.85;29.70;;;;;;;;;;5013687;28;20197;-62
2023/02/17 00:44:52;;;;;;;45.70;28.70;;;;;;;;;;5013780;28;20167;-62
2023/02/17 00:47:18;;;;;;;48.38;29.98;;;;;;;;;;5013554;28;20178;-61
2023/02/17 00:49:44;;;;;;;46.63;29.92;;;;;;;;;;5013572;28;20322;-61
2023/02/17 00:52:10;;;;;;;49.88;30.73;;;;;;;;;;5013284;28;20197;-61
2023/02/17 00:54:36;;;;;;;46.08;29.40;;;;;;;;;;5013804;28;20174;-62
2023/02/17 00:57:02;;;;;;;46.03;29.30;;;;;;;;;;5013428;28;20202;-62
2023/02/17 00:59:28;;;;;;;47.55;30.02;;;;;;;;;;5013779;28;20227;-62
2023/02/17 01:01:54;;;;;;;47.22;28.85;;;;;;;;;;5013152;28;20601;-62
2023/02/17 01:04:20;;;;;;;45.03;28.90;;;;;;;;;;5013861;28;20176;-59
2023/02/17 01:06:46;;;;;;;44.83;29.70;;;;;;;;;;5013651;28;20309;-61
2023/02/17 01:09:13;;;;;;;45.00;30.10;;;;;;;;;;5013560;28;20181;-59
2023/02/17 01:11:39;;;;;;;46.95;29.63;;;;;;;;;;5013407;28;20205;-60
2023/02/17 01:14:06;;;;;;;49.35;31.38;;;;;;;;;;5013283;28;20178;-60
2023/02/17 01:16:36;;;;;;;47.58;30.13;;;;;;;;;;5013457;28;20169;-58
2023/02/17 01:19:03;;;;;;;49.30;30.60;;;;;;;;;;5014023;28;20211;-59
2023/02/17 01:21:30;;;;;;;47.35;31.33;;;;;;;;;;5011973;28;20170;-61
2023/02/17 01:23:57;;;;;;;49.92;32.03;;;;;;;;;;5013064;28;20170;-62
2023/02/17 01:26:25;;;;;;;51.63;30.83;;;;;;;;;;5012037;28;20171;-62
2023/02/17 01:28:52;;;;;;;48.38;30.90;;;;;;;;;;5013297;28;20170;-62
2023/02/17 01:31:18;;;;;;;48.65;31.55;;;;;;;;;;5013265;28;20175;-62
2023/02/17 01:33:45;;;;;;;50.97;32.33;;;;;;;;;;5012824;28;20653;-61
2023/02/17 01:36:11;;;;;;;50.83;31.70;;;;;;;;;;5013266;28;20186;-61
2023/02/17 01:38:37;;;;;;;47.50;31.27;;;;;;;;;;5013093;28;20176;-58
2023/02/17 01:41:04;;;;;;;49.03;31.65;;;;;;;;;;5013166;28;20190;-61
2023/02/17 01:43:30;;;;;;;51.63;33.22;;;;;;;;;;5013132;28;20192;-58
2023/02/17 01:45:57;;;;;;;45.60;29.50;;;;;;;;;;5013080;28;20272;-60
2023/02/17 01:48:35;;;;;;;46.83;30.63;;;;;;;;;;5013224;28;20227;-61
2023/02/17 01:51:07;;;;;;;43.97;29.40;;;;;;;;;;5013104;28;20219;-62
2023/02/17 01:53:35;;;;;;;45.95;28.95;;;;;;;;;;5013625;28;20224;-61
2023/02/17 01:56:01;;;;;;;47.28;30.02;;;;;;;;;;5014387;28;20261;-60
2023/02/17 01:58:27;;;;;;;48.67;30.42;;;;;;;;;;5014182;28;20177;-62
2023/02/17 02:00:56;;;;;;;46.97;29.45;;;;;;;;;;5012945;28;20179;-62
2023/02/17 02:03:22;;;;;;;44.17;28.27;;;;;;;;;;5011607;28;20178;-62
2023/02/17 02:05:48;;;;;;;45.88;29.27;;;;;;;;;;5012884;28;20174;-62
2023/02/17 02:08:14;;;;;;;45.60;28.08;;;;;;;;;;5012660;28;20170;-62
2023/02/17 02:10:41;;;;;;;44.92;29.92;;;;;;;;;;5012731;28;20181;-60
2023/02/17 02:13:07;;;;;;;44.22;29.83;;;;;;;;;;5012314;28;20227;-61
2023/02/17 02:15:37;;;;;;;42.63;28.60;;;;;;;;;;5012588;28;20167;-61
2023/02/17 02:18:03;;;;;;;48.15;28.95;;;;;;;;;;5011346;28;20173;-61
2023/02/17 02:20:51;;;;;;;46.70;29.77;;;;;;;;;;5012587;28;20256;-59
2023/02/17 02:23:36;;;;;;;44.55;29.17;;;;;;;;;;5012364;28;20154;-61
2023/02/17 02:26:14;;;;;;;47.30;29.35;;;;;;;;;;5012194;28;20181;-62
2023/02/17 02:28:49;;;;;;;47.92;30.95;;;;;;;;;;5012412;28;20174;-62
2023/02/17 02:31:34;;;;;;;49.90;29.83;;;;;;;;;;5012108;28;20646;-61
2023/02/17 02:34:03;;;;;;;46.80;30.23;;;;;;;;;;5015086;28;20220;-59
2023/02/17 02:36:36;;;;;;;45.70;30.92;;;;;;;;;;5016067;28;20557;-60
2023/02/17 02:39:18;;;;;;;48.47;30.27;;;;;;;;;;5015953;28;20546;-61
2023/02/17 02:41:55;;;;;;;49.45;30.08;;;;;;;;;;5015785;28;20170;-62
2023/02/17 02:44:21;;;;;;;46.80;28.48;;;;;;;;;;5015472;28;20523;-62
2023/02/17 02:47:08;;;;;;;48.55;29.45;;;;;;;;;;5015753;28;20249;-62
2023/02/17 02:49:36;;;;;;;44.85;29.67;;;;;;;;;;5056430;28;20480;-61
2023/02/17 02:52:02;;;;;;;46.17;29.45;;;;;;;;;;5016140;28;20516;-61
2023/02/17 02:54:28;;;;;;;49.05;30.40;;;;;;;;;;5015915;28;20166;-59
2023/02/17 02:57:05;;;;;;;46.92;29.88;;;;;;;;;;5016072;28;20223;-61
2023/02/17 02:59:50;;;;;;;47.88;30.33;;;;;;;;;;5016004;28;20496;-61
2023/02/17 03:02:21;;;;;;;45.75;28.58;;;;;;;;;;5015574;28;20190;-61
2023/02/17 03:04:49;;;;;;;47.78;30.05;;;;;;;;;;5015204;28;20581;-62
2023/02/17 03:07:23;;;;;;;49.63;30.92;;;;;;;;;;5015566;28;20179;-60
2023/02/17 03:09:50;;;;;;;41.72;28.40;;;;;;;;;;5015386;28;20162;-61
2023/02/17 03:12:16;;;;;;;46.03;27.83;;;;;;;;;;5015222;28;20196;-59
2023/02/17 03:14:43;;;;;;;43.40;27.65;;;;;;;;;;5014945;28;20177;-59
2023/02/17 03:17:09;;;;;;;42.78;27.10;;;;;;;;;;5015312;28;20167;-60
2023/02/17 03:19:35;;;;;;;39.78;26.40;;;;;;;;;;5015287;28;20158;-61
2023/02/17 03:22:05;;;;;;;40.15;26.42;;;;;;;;;;5015302;28;20565;-59
2023/02/17 03:24:31;;;;;;;38.95;25.48;;;;;;;;;;5015459;28;20509;-58
2023/02/17 03:26:57;;;;;;;40.47;25.65;;;;;;;;;;5015215;28;20173;-59
2023/02/17 03:29:23;;;;;;;38.78;25.30;;;;;;;;;;5015091;28;20170;-58
2023/02/17 03:31:49;;;;;;;37.58;24.90;;;;;;;;;;5015181;28;20192;-60
2023/02/17 03:34:15;;;;;;;38.13;25.15;;;;;;;;;;5015141;28;20234;-60
2023/02/17 03:36:40;;;;;;;36.72;24.52;;;;;;;;;;5014838;28;20214;-59
2023/02/17 03:39:06;;;;;;;34.47;23.50;;;;;;;;;;5014943;28;20181;-62
2023/02/17 03:41:32;;;;;;;36.22;24.27;;;;;;;;;;5015185;28;20620;-62
2023/02/17 03:43:58;;;;;;;33.75;23.75;;;;;;;;;;5013697;28;20209;-62
2023/02/17 03:46:24;;;;;;;34.33;22.83;;;;;;;;;;5014487;28;20206;-62
2023/02/17 03:48:50;;;;;;;32.50;22.52;;;;;;;;;;5014769;28;20170;-60
2023/02/17 03:51:18;;;;;;;32.53;22.23;;;;;;;;;;5014862;28;20245;-62
2023/02/17 03:53:44;;;;;;;29.63;20.52;;;;;;;;;;5014265;28;20659;-60
2023/02/17 03:56:11;;;;;;;29.67;21.48;;;;;;;;;;5014879;28;20174;-61
2023/02/17 03:58:37;;;;;;;32.90;22.77;;;;;;;;;;5014282;28;20505;-61
2023/02/17 04:01:03;;;;;;;32.00;21.70;;;;;;;;;;5014328;28;20571;-61
2023/02/17 04:03:29;;;;;;;30.42;20.70;;;;;;;;;;5014389;28;20193;-62
2023/02/17 04:05:55;;;;;;;31.42;22.48;;;;;;;;;;5014531;28;20170;-59
2023/02/17 04:08:21;;;;;;;30.20;21.45;;;;;;;;;;5014259;28;20220;-61
2023/02/17 04:10:51;;;;;;;29.38;21.00;;;;;;;;;;5014563;28;20170;-61
2023/02/17 04:13:17;;;;;;;30.30;20.77;;;;;;;;;;5014095;28;20226;-60
2023/02/17 04:15:43;;;;;;;30.83;22.45;;;;;;;;;;5014450;28;20209;-60
2023/02/17 04:18:09;;;;;;;29.95;21.02;;;;;;;;;;5014112;28;20166;-61
2023/02/17 04:20:35;;;;;;;31.20;21.05;;;;;;;;;;5014500;28;20656;-61
2023/02/17 04:23:01;;;;;;;28.13;20.38;;;;;;;;;;5014639;28;20197;-61
2023/02/17 04:25:26;;;;;;;27.23;19.92;;;;;;;;;;5014420;28;20210;-59
2023/02/17 04:27:52;;;;;;;27.92;20.60;;;;;;;;;;5014194;28;20182;-61
2023/02/17 04:30:18;;;;;;;28.05;18.98;;;;;;;;;;5013942;28;20261;-60
2023/02/17 04:32:45;;;;;;;29.15;19.58;;;;;;;;;;5014117;28;20198;-61
2023/02/17 04:35:11;;;;;;;26.48;19.10;;;;;;;;;;5013989;28;20241;-61
2023/02/17 04:37:37;;;;;;;27.50;19.40;;;;;;;;;;5014181;28;20166;-61
2023/02/17 04:40:03;;;;;;;26.25;18.83;;;;;;;;;;5013743;28;20170;-61
2023/02/17 04:42:29;;;;;;;28.70;19.88;;;;;;;;;;5015128;28;20174;-61
2023/02/17 04:44:55;;;;;;;28.83;19.92;;;;;;;;;;5021871;28;20198;-60
2023/02/17 04:47:21;;;;;;;26.00;19.00;;;;;;;;;;5019026;28;20440;-61
2023/02/17 04:49:47;;;;;;;27.17;19.15;;;;;;;;;;5014270;28;20175;-60
2023/02/17 04:52:13;;;;;;;27.42;20.27;;;;;;;;;;5013969;28;20265;-61
2023/02/17 04:54:39;;;;;;;23.92;17.77;;;;;;;;;;5013856;28;20198;-61
2023/02/17 04:57:05;;;;;;;24.98;18.10;;;;;;;;;;5013409;28;20162;-58
2023/02/17 04:59:31;;;;;;;23.92;17.90;;;;;;;;;;5014118;28;20177;-58
2023/02/17 05:01:57;;;;;;;25.45;18.55;;;;;;;;;;5013645;28;20201;-60
2023/02/17 05:04:23;;;;;;;25.30;17.80;;;;;;;;;;5014383;28;20261;-59
2023/02/17 05:06:49;;;;;;;22.58;16.67;;;;;;;;;;5013728;28;20170;-61
2023/02/17 05:09:15;;;;;;;23.20;17.35;;;;;;;;;;5014267;28;20171;-58
2023/02/17 05:11:41;;;;;;;25.52;17.75;;;;;;;;;;5013671;28;20177;-59
2023/02/17 05:14:07;;;;;;;23.90;17.60;;;;;;;;;;5013947;28;20496;-61
2023/02/17 05:16:32;;;;;;;25.38;17.13;;;;;;;;;;5013635;28;20162;-61
2023/02/17 05:18:58;;;;;;;22.35;17.25;;;;;;;;;;5013770;28;20170;-61
2023/02/17 05:21:24;;;;;;;21.17;15.98;;;;;;;;;;5013507;28;20174;-62
2023/02/17 05:23:50;;;;;;;22.15;15.95;;;;;;;;;;5013158;28;20227;-61
2023/02/17 05:26:16;;;;;;;21.83;16.02;;;;;;;;;;5012888;28;20265;-62
2023/02/17 05:28:42;;;;;;;20.48;15.75;;;;;;;;;;5013139;28;20177;-61
2023/02/17 05:31:09;;;;;;;19.92;15.32;;;;;;;;;;5013255;28;20173;-62
2023/02/17 05:33:35;;;;;;;19.83;15.50;;;;;;;;;;5013403;28;20255;-61
2023/02/17 05:36:05;;;;;;;21.83;15.35;;;;;;;;;;5013064;28;20614;-62
2023/02/17 05:38:31;;;;;;;19.58;15.10;;;;;;;;;;5013225;28;20190;-61
2023/02/17 05:40:57;;;;;;;19.25;15.55;;;;;;;;;;5013268;28;20166;-62
2023/02/17 05:43:23;;;;;;;18.02;14.05;;;;;;;;;;5013123;28;20170;-61
2023/02/17 05:45:49;;;;;;;19.40;15.35;;;;;;;;;;5013119;28;20173;-61
2023/02/17 05:48:15;;;;;;;18.63;14.35;;;;;;;;;;5013172;28;20170;-62
2023/02/17 05:50:41;;;;;;;16.00;13.05;;;;;;;;;;5012947;28;20206;-61
2023/02/17 05:53:07;;;;;;;19.95;14.48;;;;;;;;;;5012863;28;20275;-60
2023/02/17 05:55:33;;;;;;;19.25;14.00;;;;;;;;;;5012974;28;20204;-61
2023/02/17 05:57:59;;;;;;;17.55;14.32;;;;;;;;;;5013703;28;20174;-60
2023/02/17 06:00:25;;;;;;;16.85;13.43;;;;;;;;;;5012503;28;20205;-61
2023/02/17 06:02:51;;;;;;;16.77;13.45;;;;;;;;;;5012586;28;20255;-61
2023/02/17 06:05:17;;;;;;;18.42;14.05;;;;;;;;;;5012425;28;20182;-60
2023/02/17 06:07:43;;;;;;;17.50;13.75;;;;;;;;;;5011978;28;20162;-62
2023/02/17 06:10:10;;;;;;;15.45;13.00;;;;;;;;;;5012919;28;20178;-61
2023/02/17 06:12:36;;;;;;;14.80;12.70;;;;;;;;;;5012855;28;20190;-61
2023/02/17 06:15:02;;;;;;;16.20;13.73;;;;;;;;;;5013165;28;20166;-61
2023/02/17 06:17:28;;;;;;;16.42;12.80;;;;;;;;;;5012903;28;20544;-61
2023/02/17 06:19:54;;;;;;;19.02;14.82;;;;;;;;;;5012965;28;20167;-61
2023/02/17 06:22:20;;;;;;;17.70;13.65;;;;;;;;;;5012912;28;20249;-61
2023/02/17 06:24:46;;;;;;;18.38;13.32;;;;;;;;;;5012667;28;20163;-62
2023/02/17 06:27:12;;;;;;;18.02;14.02;;;;;;;;;;5012550;28;20507;-62
2023/02/17 06:29:38;;;;;;;16.38;13.07;;;;;;;;;;5012488;28;20181;-61
2023/02/17 06:32:04;;;;;;;17.88;13.68;;;;;;;;;;5011994;28;20190;-61
2023/02/17 06:34:30;;;;;;;17.88;14.20;;;;;;;;;;5012685;28;20171;-62
2023/02/17 06:36:56;;;;;;;18.75;13.73;;;;;;;;;;5012377;28;20493;-61
2023/02/17 06:39:22;;;;;;;18.45;13.95;;;;;;;;;;5012352;28;20170;-62
2023/02/17 06:41:48;;;;;;;19.05;14.55;;;;;;;;;;5012155;28;20201;-61
2023/02/17 06:44:14;;;;;;;17.50;13.95;;;;;;;;;;5012073;28;20190;-60
2023/02/17 06:46:40;;;;;;;18.05;13.90;;;;;;;;;;5012075;28;20607;-60
2023/02/17 06:49:06;;;;;;;18.40;13.35;;;;;;;;;;5012222;28;20158;-61
2023/02/17 06:51:32;;;;;;;21.20;14.90;;;;;;;;;;5012087;28;20190;-61
2023/02/17 06:53:58;;;;;;;20.40;14.65;;;;;;;;;;5011925;28;20210;-62
2023/02/17 06:56:24;;;;;;;19.35;14.63;;;;;;;;;;5011837;28;20159;-63
2023/02/17 06:58:51;;;;;;;19.05;14.68;;;;;;;;;;5011802;28;20170;-62
2023/02/17 07:01:17;;;;;;;20.08;15.13;;;;;;;;;;5012021;28;20174;-62
2023/02/17 07:03:43;;;;;;;19.52;14.55;;;;;;;;;;5011758;28;20617;-63
2023/02/17 07:06:09;;;;;;;18.88;13.27;;;;;;;;;;5011988;28;20181;-61
2023/02/17 07:08:35;;;;;;;20.08;15.02;;;;;;;;;;5011970;28;20181;-61
2023/02/17 07:11:08;;;;;;;19.20;13.93;;;;;;;;;;5011962;28;20234;-61
2023/02/17 07:13:34;;;;;;;17.77;13.73;;;;;;;;;;5011946;28;20194;-58
2023/02/17 07:16:00;;;;;;;17.92;13.63;;;;;;;;;;5012027;28;20612;-62
2023/02/17 07:18:26;;;;;;;17.40;12.48;;;;;;;;;;5012325;28;20235;-61
2023/02/17 07:20:52;;;;;;;17.23;12.90;;;;;;;;;;5014791;28;20176;-62
2023/02/17 07:23:18;;;;;;;17.58;13.30;;;;;;;;;;5015393;28;20253;-62
2023/02/17 07:25:44;;;;;;;15.27;12.68;;;;;;;;;;5014985;28;20615;-62
2023/02/17 07:28:10;;;;;;;16.38;12.63;;;;;;;;;;5014772;28;20273;-60
2023/02/17 07:30:37;;;;;;;15.68;11.70;;;;;;;;;;5018115;28;20178;-61
2023/02/17 07:33:03;;;;;;;15.63;12.27;;;;;;;;;;5018604;28;20221;-62
2023/02/17 07:35:29;;;;;;;15.50;11.57;;;;;;;;;;5018010;28;20193;-60
2023/02/17 07:37:59;;;;;;;15.95;11.98;;;;;;;;;;5014971;28;20604;-61
2023/02/17 07:40:25;;;;;;;14.90;11.30;;;;;;;;;;5015113;28;20487;-61
2023/02/17 07:42:51;;;;;;;14.07;10.85;;;;;;;;;;5015365;28;20228;-60
2023/02/17 07:45:17;;;;;;;13.65;10.50;;;;;;;;;;5014794;28;20616;-61
2023/02/17 07:47:43;;;;;;;15.35;10.30;;;;;;;;;;5014417;28;20170;-62
2023/02/17 07:50:09;;;;;;;13.77;10.32;;;;;;;;;;5014512;28;20258;-61
2023/02/17 07:52:35;;;;;;;12.55;9.77;;;;;;;;;;5014476;28;20197;-61
2023/02/17 07:55:01;;;;;;;13.40;10.48;;;;;;;;;;5014538;28;20166;-61
2023/02/17 07:57:27;;;;;;;13.40;10.25;;;;;;;;;;5014795;28;20178;-61
2023/02/17 07:59:53;;;;;;;12.13;9.70;;;;;;;;;;5014440;28;20460;-61
2023/02/17 08:02:18;;;;;;;11.85;9.60;;;;;;;;;;5014369;28;20281;-61
2023/02/17 08:04:44;;;;;;;12.63;9.73;;;;;;;;;;5014742;28;20174;-61
2023/02/17 08:07:10;;;;;;;14.73;9.77;;;;;;;;;;5014245;28;20252;-61
2023/02/17 08:15:07;;;;;;;13.32;9.48;;;;;;;;;;5014549;28;20757;-62
2023/02/17 08:17:33;;;;;;;13.02;8.88;;;;;;;;;;5013954;28;20166;-62
2023/02/17 08:19:59;;;;;;;11.68;8.73;;;;;;;;;;5014375;28;20177;-62
2023/02/17 08:22:25;;;;;;;14.35;8.80;;;;;;;;;;5014334;28;20289;-62
2023/02/17 08:24:51;;;;;;;11.02;8.40;;;;;;;;;;5013967;28;20614;-62
2023/02/17 08:27:18;;;;;;;11.13;8.65;;;;;;;;;;5013956;28;20173;-62
2023/02/17 08:29:44;;;;;;;11.93;8.85;;;;;;;;;;5014108;28;20167;-59
2023/02/17 08:32:11;;;;;;;11.38;8.20;;;;;;;;;;5013563;28;20281;-61
2023/02/17 08:34:37;;;;;;;12.10;8.68;;;;;;;;;;5014103;28;20166;-61
2023/02/17 08:37:04;;;;;;;10.85;8.60;;;;;;;;;;5013944;28;20209;-60
2023/02/17 08:39:30;;;;;;;10.20;7.95;;;;;;;;;;5014051;28;20170;-58
2023/02/17 08:41:56;;;;;;;11.65;8.70;;;;;;;;;;5013984;28;20214;-60
2023/02/17 08:44:22;;;;;;;9.68;7.43;;;;;;;;;;5014044;28;20170;-61
2023/02/17 08:46:48;;;;;;;11.07;8.23;;;;;;;;;;5013964;28;20181;-60
2023/02/17 08:49:15;;;;;;;10.50;8.25;;;;;;;;;;5014335;28;20182;-60
2023/02/17 08:51:42;;;;;;;11.48;8.40;;;;;;;;;;5013904;28;20278;-60
2023/02/17 08:54:09;;;;;;;11.82;8.02;;;;;;;;;;5013647;28;20206;-62
2023/02/17 08:56:36;;;;;;;11.50;8.68;;;;;;;;;;5013799;28;20171;-58
2023/02/17 08:59:02;;;;;;;14.20;8.48;;;;;;;;;;5013838;28;20158;-60
2023/02/17 09:01:28;;;;;;;9.70;7.45;;;;;;;;;;5013466;28;20239;-60
2023/02/17 09:03:56;;;;;;;10.00;7.03;;;;;;;;;;5014003;28;20174;-61
2023/02/17 09:06:21;;;;;;;9.80;7.22;;;;;;;;;;5014292;28;20174;-61
2023/02/17 09:08:48;;;;;;;10.13;7.78;;;;;;;;;;5013881;28;20216;-59
2023/02/17 09:11:16;;;;;;;9.30;6.93;;;;;;;;;;5013982;28;20170;-59
2023/02/17 09:13:42;;;;;;;10.32;7.25;;;;;;;;;;5013472;28;20190;-61
2023/02/17 09:16:08;;;;;;;9.23;6.88;;;;;;;;;;5013649;28;20498;-59
2023/02/17 09:18:34;;;;;;;9.52;6.70;;;;;;;;;;5013285;28;20162;-60
2023/02/17 09:21:05;;;;;;;9.85;6.95;;;;;;;;;;5013560;28;20166;-59
2023/02/17 09:23:31;;;;;;;9.52;6.53;;;;;;;;;;5012978;28;20159;-58
2023/02/17 09:26:04;;;;;;;9.63;6.43;;;;;;;;;;5013334;28;20513;-60
2023/02/17 09:28:30;;;;;;;9.10;6.75;;;;;;;;;;5013068;28;20177;-59
2023/02/17 09:30:56;;;;;;;8.43;6.38;;;;;;;;;;5013177;28;20177;-58
2023/02/17 09:33:21;;;;;;;8.00;5.72;;;;;;;;;;5013442;28;20190;-60
2023/02/17 09:35:48;;;;;;;8.65;6.30;;;;;;;;;;5013554;28;20174;-59
2023/02/17 09:38:14;;;;;;;8.00;5.97;;;;;;;;;;5012846;28;20181;-58
2023/02/17 09:40:47;;;;;;;8.45;5.60;;;;;;;;;;5013116;28;20162;-58
2023/02/17 09:43:15;;;;;;;10.10;6.30;;;;;;;;;;5012242;28;20190;-61
2023/02/17 09:45:42;;;;;;;8.40;5.78;;;;;;;;;;5013266;28;20181;-62
2023/02/17 09:48:10;;;;;;;8.68;5.95;;;;;;;;;;5013001;28;20231;-60
2023/02/17 09:50:54;;;;;;;9.45;6.75;;;;;;;;;;5012665;28;20227;-60
2023/02/17 09:53:33;;;;;;;9.55;6.15;;;;;;;;;;5013019;28;20204;-58
2023/02/17 09:56:02;;;;;;;7.93;5.45;;;;;;;;;;5013189;28;20544;-59
2023/02/17 09:58:33;;;;;;;9.20;6.30;;;;;;;;;;5012540;28;20605;-60
2023/02/17 10:01:01;;;;;;;9.10;6.45;;;;;;;;;;5012627;28;20154;-62
2023/02/17 10:03:45;;;;;;;9.82;6.07;;;;;;;;;;5012337;28;20707;-59
2023/02/17 10:06:19;;;;;;;8.43;6.40;;;;;;;;;;5012815;28;20227;-60
2023/02/17 10:08:48;;;;;;;9.30;6.32;;;;;;;;;;5012425;28;20222;-61
2023/02/17 10:11:22;;;;;;;8.98;6.28;;;;;;;;;;5012712;28;20248;-61
2023/02/17 10:13:49;;;;;;;8.38;6.00;;;;;;;;;;5012557;28;20228;-62
2023/02/17 10:16:20;;;;;;;9.07;5.95;;;;;;;;;;5014470;28;20194;-61
2023/02/17 10:18:51;;;;;;;8.45;6.10;;;;;;;;;;5014647;28;20146;-60
2023/02/17 10:21:29;;;;;;;9.93;6.30;;;;;;;;;;5013159;28;20605;-61
2023/02/17 10:23:55;;;;;;;10.60;6.50;;;;;;;;;;5012527;28;20204;-62
2023/02/17 10:26:39;;;;;;;10.10;6.32;;;;;;;;;;5012304;28;20197;-60
2023/02/17 10:29:07;;;;;;;8.40;6.05;;;;;;;;;;5012371;28;20269;-61
2023/02/17 10:31:42;;;;;;;9.48;6.80;;;;;;;;;;5012070;28;20205;-62
2023/02/17 10:34:20;;;;;;;8.95;5.85;;;;;;;;;;5012372;28;20178;-61
2023/02/17 10:36:52;;;;;;;8.38;5.95;;;;;;;;;;5012116;28;20170;-62
2023/02/17 10:39:36;;;;;;;7.00;5.22;;;;;;;;;;5012066;28;20609;-62
2023/02/17 10:42:03;;;;;;;7.72;5.90;;;;;;;;;;5012341;28;20189;-60
2023/02/17 10:44:30;;;;;;;9.25;6.05;;;;;;;;;;5012220;28;20201;-61
2023/02/17 10:46:57;;;;;;;8.38;5.50;;;;;;;;;;5012412;28;20202;-61
2023/02/17 10:49:26;;;;;;;7.90;5.72;;;;;;;;;;5011936;28;20269;-62
2023/02/17 10:51:52;;;;;;;8.27;5.45;;;;;;;;;;5011812;28;20632;-61
2023/02/17 10:54:29;;;;;;;8.70;5.78;;;;;;;;;;5013715;28;20202;-62
2023/02/17 10:56:57;;;;;;;7.22;5.25;;;;;;;;;;5015646;28;20498;-61
2023/02/17 10:59:28;;;;;;;8.38;5.22;;;;;;;;;;5015446;28;20166;-61
2023/02/17 11:02:20;;;;;;;6.82;4.70;;;;;;;;;;5015409;28;20193;-61
2023/02/17 11:04:50;;;;;;;8.02;5.35;;;;;;;;;;5045599;28;20190;-61
2023/02/17 11:07:17;;;;;;;6.78;5.00;;;;;;;;;;5015432;28;20162;-62
2023/02/17 11:09:48;;;;;;;6.65;4.03;;;;;;;;;;5015336;28;20266;-61
2023/02/17 11:12:20;;;;;;;5.03;3.83;;;;;;;;;;5015250;28;20273;-59
2023/02/17 11:14:48;;;;;;;5.53;4.38;;;;;;;;;;5015322;28;20246;-60
2023/02/17 11:17:28;;;;;;;5.63;3.88;;;;;;;;;;5015024;28;20170;-62
2023/02/17 11:19:55;;;;;;;4.82;3.40;;;;;;;;;;5015146;28;20260;-61
2023/02/17 11:22:27;;;;;;;4.28;3.20;;;;;;;;;;5015217;28;20239;-62
2023/02/17 11:24:59;;;;;;;4.78;3.08;;;;;;;;;;5015224;28;20188;-58
2023/02/17 11:27:26;;;;;;;4.60;3.40;;;;;;;;;;5015183;28;20205;-61
2023/02/17 11:29:54;;;;;;;4.80;2.78;;;;;;;;;;5014842;28;20642;-61
2023/02/17 11:32:30;;;;;;;3.65;3.05;;;;;;;;;;5015009;28;20195;-61
2023/02/17 11:34:57;;;;;;;3.47;2.50;;;;;;;;;;5014612;28;20167;-60
2023/02/17 11:37:25;;;;;;;4.95;2.55;;;;;;;;;;5015001;28;20573;-62
2023/02/17 11:39:52;;;;;;;3.60;2.55;;;;;;;;;;5014846;28;20223;-62
2023/02/17 11:42:21;;;;;;;4.55;2.72;;;;;;;;;;5014622;28;20181;-62
2023/02/17 11:44:48;;;;;;;4.32;2.65;;;;;;;;;;5014723;28;20570;-61
2023/02/17 11:47:32;;;;;;;2.80;2.30;;;;;;;;;;5014924;28;20194;-62
2023/02/17 11:50:08;;;;;;;3.67;2.63;;;;;;;;;;5014881;28;20254;-61
2023/02/17 11:52:34;;;;;;;3.45;2.15;;;;;;;;;;5014689;28;20239;-61
2023/02/17 11:55:19;;;;;;;4.18;2.30;;;;;;;;;;5014305;28;20175;-62
2023/02/17 11:57:47;;;;;;;2.75;1.98;;;;;;;;;;5014718;28;20257;-61
2023/02/17 12:00:21;;;;;;;2.60;2.15;;;;;;;;;;5014216;28;20209;-60
2023/02/17 12:03:04;;;;;;;3.08;2.58;;;;;;;;;;5014052;28;20190;-62
2023/02/17 12:05:40;;;;;;;3.15;2.20;;;;;;;;;;5013444;28;20162;-62
2023/02/17 12:08:22;;;;;;;3.22;2.50;;;;;;;;;;5014625;28;20371;-61
2023/02/17 12:10:47;;;;;;;3.55;2.53;;;;;;;;;;5014210;28;20159;-61
2023/02/17 12:13:22;;;;;;;4.53;2.92;;;;;;;;;;5014436;28;20274;-62
2023/02/17 12:15:48;;;;;;;3.70;2.70;;;;;;;;;;5014049;28;20636;-61
2023/02/17 12:18:14;;;;;;;4.00;2.70;;;;;;;;;;5014289;28;20166;-60
2023/02/17 12:21:05;;;;;;;6.32;3.83;;;;;;;;;;5013920;28;20173;-62
2023/02/17 12:23:42;;;;;;;5.03;3.45;;;;;;;;;;5014211;28;20171;-62
2023/02/17 12:26:28;;;;;;;4.85;3.38;;;;;;;;;;5014308;28;20158;-60
2023/02/17 12:29:02;;;;;;;4.70;3.40;;;;;;;;;;5014256;28;20174;-62
2023/02/17 12:31:31;;;;;;;4.80;3.58;;;;;;;;;;5014376;28;20174;-62
2023/02/17 12:33:59;;;;;;;6.57;3.88;;;;;;;;;;5013972;28;20232;-60
2023/02/17 12:36:29;;;;;;;5.43;3.60;;;;;;;;;;5013889;28;20166;-60
2023/02/17 12:39:01;;;;;;;7.15;4.15;;;;;;;;;;5013938;28;20535;-61
2023/02/17 12:41:36;;;;;;;4.90;3.47;;;;;;;;;;5014035;28;20174;-60
2023/02/17 12:44:12;;;;;;;6.43;3.72;;;;;;;;;;5013809;28;20592;-61
2023/02/17 12:46:39;;;;;;;6.55;4.13;;;;;;;;;;5013703;28;20536;-59
2023/02/17 12:49:10;;;;;;;5.93;3.60;;;;;;;;;;5013968;28;20194;-61
2023/02/17 12:51:40;;;;;;;5.18;3.38;;;;;;;;;;5014298;28;20169;-60
2023/02/17 12:54:22;;;;;;;4.82;3.28;;;;;;;;;;5014321;28;20293;-61
2023/02/17 12:56:49;;;;;;;3.35;2.42;;;;;;;;;;5014151;28;20170;-61
2023/02/17 12:59:17;;;;;;;4.53;2.78;;;;;;;;;;5016510;28;20174;-61
2023/02/17 13:01:48;;;;;;;4.25;2.70;;;;;;;;;;5018616;28;20174;-62
2023/02/17 13:04:16;;;;;;;4.40;2.80;;;;;;;;;;5016210;28;20194;-62
2023/02/17 13:06:44;;;;;;;4.60;2.60;;;;;;;;;;5013585;28;20205;-62
2023/02/17 13:09:31;;;;;;;3.83;2.25;;;;;;;;;;5013464;28;20492;-60
2023/02/17 13:12:07;;;;;;;3.90;2.22;;;;;;;;;;5013647;28;20531;-62
2023/02/17 13:14:40;;;;;;;3.47;2.67;;;;;;;;;;5013167;28;20165;-60
2023/02/17 13:17:20;;;;;;;2.83;2.03;;;;;;;;;;5013385;28;20178;-62
2023/02/17 13:19:46;;;;;;;4.78;2.22;;;;;;;;;;5013285;28;20158;-62
2023/02/17 13:22:21;;;;;;;3.28;2.00;;;;;;;;;;5013132;28;20364;-59
2023/02/17 13:24:51;;;;;;;3.28;1.98;;;;;;;;;;5013355;28;20236;-59
2023/02/17 13:27:30;;;;;;;2.88;2.10;;;;;;;;;;5013152;28;20271;-61
2023/02/17 13:30:04;;;;;;;3.88;2.20;;;;;;;;;;5013265;28;20178;-62
2023/02/17 13:32:31;;;;;;;3.17;2.10;;;;;;;;;;5013157;28;20193;-61
2023/02/17 13:35:07;;;;;;;2.38;1.92;;;;;;;;;;5013067;28;20249;-61
2023/02/17 13:37:33;;;;;;;4.32;2.15;;;;;;;;;;5013175;28;20262;-60
2023/02/17 13:40:00;;;;;;;3.20;1.83;;;;;;;;;;5013252;28;20232;-59
2023/02/17 13:42:37;;;;;;;3.33;2.05;;;;;;;;;;5013157;28;20188;-61
2023/02/17 13:45:22;;;;;;;3.58;2.10;;;;;;;;;;5012967;28;20170;-61
2023/02/17 13:47:49;;;;;;;2.60;1.80;;;;;;;;;;5013027;28;20174;-61
2023/02/17 13:50:44;;;;;;;2.95;1.92;;;;;;;;;;5012662;28;20170;-60
2023/02/17 13:53:29;;;;;;;3.15;2.15;;;;;;;;;;5029126;28;20206;-59
2023/02/17 13:56:11;;;;;;;3.85;2.20;;;;;;;;;;5012805;28;20166;-59
2023/02/17 13:58:38;;;;;;;2.67;1.90;;;;;;;;;;5012736;28;20175;-61
2023/02/17 14:01:06;;;;;;;3.47;2.22;;;;;;;;;;5012765;28;20177;-62
2023/02/17 14:03:51;;;;;;;4.00;2.38;;;;;;;;;;5012536;28;20194;-62
2023/02/17 14:06:26;;;;;;;5.05;2.40;;;;;;;;;;5012751;28;20214;-62
2023/02/17 14:08:52;;;;;;;3.83;2.30;;;;;;;;;;5012838;28;20174;-61
2023/02/17 14:11:20;;;;;;;3.55;2.33;;;;;;;;;;5012426;28;20604;-62
2023/02/17 14:13:47;;;;;;;2.88;2.17;;;;;;;;;;5012712;28;20190;-61
2023/02/17 14:16:30;;;;;;;3.42;2.42;;;;;;;;;;5012547;28;20166;-62
2023/02/17 14:19:05;;;;;;;5.25;2.30;;;;;;;;;;5012625;28;20162;-60
2023/02/17 14:21:32;;;;;;;3.20;2.13;;;;;;;;;;5012730;28;20177;-62
2023/02/17 14:23:58;;;;;;;5.00;2.38;;;;;;;;;;5012549;28;20176;-61
2023/02/17 14:26:46;;;;;;;3.83;2.60;;;;;;;;;;5012593;28;20264;-62
2023/02/17 14:29:12;;;;;;;4.38;2.33;;;;;;;;;;5011974;28;20185;-60
2023/02/17 14:31:39;;;;;;;2.80;1.95;;;;;;;;;;5012509;28;20171;-61
2023/02/17 14:34:05;;;;;;;6.28;2.47;;;;;;;;;;5012727;28;20209;-60
2023/02/17 14:36:33;;;;;;;3.03;1.90;;;;;;;;;;5012188;28;20257;-61
2023/02/17 14:38:59;;;;;;;3.90;2.38;;;;;;;;;;5012367;28;20239;-61
2023/02/17 14:41:26;;;;;;;5.13;2.53;;;;;;;;;;5012626;28;20251;-61
2023/02/17 14:43:52;;;;;;;4.45;2.70;;;;;;;;;;5012042;28;20535;-61